Archival Weather

Chicago O'Hare International

Chicago, Illinois (KORD)

Report from: Saturday, August 6, 2022 1:51 AM CDT
Current time: Tuesday, August 16, 2022 1:53 AM CDT

Current weather
Weather history
Weather forecast

Present weatherMist
Temperature25.0°C (77.0°F)
Dew point22.2°C (72.0°F)
Winds 4 kts (2.1 m/s, 4.6 mph) South (190°)
Visibility6 mi. (9.7 km)
Clouds Sky clear
Altimeter30.05 in.Hg (1018 mB)
Relative humidity85 %
Density altitude1,371 ft. (418 m)
Sea-level pressure101.7 kPa (1017 mB, 30.04 in.Hg)
Remarks Automated weather observing station with precipitation discriminator
Flight conditions Visual Meteorological Conditions
Raw dataKORD 060651Z 19004KT 6SM BR CLR 25/22 A3005 RMK AO2 SLP171 T02500222
An error has occurred. This application may no longer respond until reloaded. Reload 🗙